Huvudsida
METAR-TAF:

METAR-TAF

Flygplatser :

Esbjergs flygplats

Esbjerg, Danmark

latitud: 55-32N, longitud: 008-34E, höjd: 30 m

Aktuellt väderrapport

Denna rapport gjordes för 21 minuter sedan, klockan 00:20 UTC
Vind 10 kt från syd
Temperatur 10°C
Fuktighet 93%
Tryck 1025 hPa
Sikt: 7000 m

METAR: EKEB 150020Z AUTO 18010KT 7000NDV BKN063/// BKN082/// 10/09 Q1025

Tid: 01:41 (00:41 UTC)

Väderprognos

Denna rapport gjordes för 7 timmar och 19 minuter sedan, klockan 17:22 UTC
Prognos gäller från 14 kl. 18 UTC till 14 kl. 23 UTC
Vind 12 kt från syd
Sikt: 2000 m
Brutna moln på en höjd av 200 ft
lätt regn, duggregn, fuktdis
Temporärt
från 14 kl. 18 UTC till 14 kl. 23 UTC
Sikt: 6000 m
Brutna moln på en höjd av 1500 ft

TAF: EKEB 141722Z 1418/1423 18012KT 2000 -RADZ BR BKN002 TEMPO 1418/1423 6000 NSW BKN015

Aktuella väderrapporter och prognoser från 4000 flygplatser (METAR- och TAF-rapporter).

De tillgängliga stationerna syns som gula och röda prickar på kartan.

För musen över prickarna för att se namnen på stationerna.

Klicka sedan för att få väderrapporter och prognoser.

För att ändra kartan: Klicka på de gröna knapparna med ett svart kors på för att zooma in; den gröna knappen med ett streck på för att zooma ut; eller på de gröna pilarna för angränsande kartor.


METAR-TAF: